sim
Sign-in with your pilot id or email,
or register
Callsign
Passwort

Schedule Details

Flight Number: DLH2201 (2)
Departure: Dusseldorf International Airport (EDDL) at 08:45
Arrival: Munich Airport (EDDM) at 09:55
Route: Lufthansa Passenger Schedule. Enter filed route here before submitting Pirep.

Weather Information
Getting current METAR information for EDDL 190320Z 03004KT CAVOK 10/06 Q1019 NOSIG
Getting current METAR information for EDDM 190320Z VRB01KT CAVOK 06/05 Q1020 NOSIG

Schedule Frequency

Route Map